(°C)
(°C)
-0°
-1°
-2°
-2°
-3°
-3°
WZW
W
WNW
WNW
W
WZW
WZW
(km/u)
1-6
2-6
2-6
2-6
2-6
3-7
3-7
(mm)
0
0
0
0
0
0
0
(%)
0
0
0
0
0
0
0

Zonverhoging

/ -37.8°
sun-icon
UV 2
06:58
19:15
Afnemende maan (198°)
20:02
08:05

METAR voor 51.02°N 71.47°O (UACC)

Tijd Voorwaarden Temperatuur/
Dauwpunt
Wind Zicht Weer Wolken Luchtdruk Wijzigen Ruw
VFR 3°C / -1°C 280º 4kt >10km - Clouds and Visibility OK 1023 No Significant change. Runway 04: Clear and dry, , friction coefficient 0.70. UACC 211800Z 28002MPS CAVOK 03/M01 Q1023 R04/0///70 NOSIG RMK QFE735/0981
VFR 3°C / -1°C 310º 4kt >10km - Clouds and Visibility OK 1023 No Significant change. Runway 04: Clear and dry, , friction coefficient 0.70. UACC 211730Z 31002MPS CAVOK 03/M01 Q1023 R04/0///70 NOSIG RMK QFE735/0981
VFR 4°C / -2°C 300º 6kt >10km - Few Clouds 4600ft 1023 No Significant change. Runway 04: Clear and dry, , friction coefficient 0.70. UACC 211700Z 30003MPS 9999 FEW046 04/M02 Q1023 R04/0///70 NOSIG RMK QFE735/0981
VFR 4°C / -1°C 300º 4kt >10km - Scattered Clouds 4300ft 1023 No Significant change. Runway 04: Clear and dry, , friction coefficient 0.70. UACC 211630Z 30002MPS 9999 SCT043 04/M01 Q1023 R04/0///70 NOSIG RMK QFE735/0981
VFR 4°C / 0°C 290º 4kt >10km - Scattered Clouds 4200ft 1023 No Significant change. Runway 04: Clear and dry, , friction coefficient 0.70. UACC 211600Z 29002MPS 9999 SCT042 04/M00 Q1023 R04/0///70 NOSIG RMK QFE736/0981
VFR 5°C / 0°C 280º 4kt >10km - Broken Clouds 4000ft 1023 No Significant change. Runway 04: Clear and dry, , friction coefficient 0.70. UACC 211530Z 28002MPS 9999 BKN040 05/00 Q1023 R04/0///70 NOSIG RMK QFE736/0981
VFR 6°C / 0°C 260º 6kt >10km - Broken Clouds 4300ft 1023 No Significant change. Runway 04: Clear and dry, , friction coefficient 0.70. UACC 211500Z 26003MPS 9999 BKN043 06/00 Q1023 R04/0///70 NOSIG RMK QFE736/0981
VFR 5°C / -1°C 260º 4kt >10km - Scattered Clouds 4600ft 1023 No Significant change. Runway 04: Clear and dry, , friction coefficient 0.70. UACC 211430Z 26002MPS 9999 SCT046 05/M01 Q1023 R04/0///70 NOSIG RMK QFE736/0981
VFR 6°C / 0°C variable 2kt >10km - Clouds and Visibility OK 1023 No Significant change. Runway 04: Clear and dry, , friction coefficient 0.70. UACC 211400Z VRB01MPS CAVOK 06/00 Q1023 R04/0///70 NOSIG RMK QFE736/0981
VFR 7°C / 0°C 20º 4kt >10km - Clouds and Visibility OK 1023 No Significant change. Runway 04: Clear and dry, , friction coefficient 0.70. UACC 211330Z 02002MPS CAVOK 07/00 Q1023 R04/0///70 NOSIG RMK QFE735/0981
VFR 7°C / 0°C 10º 4kt >10km - Scattered Clouds 4300ft 1023 No Significant change. Runway 04: Clear and dry, , friction coefficient 0.70. UACC 211300Z 01002MPS 9999 SCT043 07/00 Q1023 R04/0///70 NOSIG RMK QFE735/0981
VFR 8°C / 0°C 350º variable 300º to 010º 4kt >10km - Scattered Clouds 4000ft 1023 No Significant change. Runway 04: Clear and dry, , friction coefficient 0.70. UACC 211230Z 35002MPS 300V010 9999 SCT040 08/00 Q1023 R04/0///70 NOSIG RMK QFE736/0981
VFR 8°C / 0°C 360º variable 320º to 020º 8kt >10km - Scattered Clouds 4000ft 1023 No Significant change. Runway 04: Clear and dry, , friction coefficient 0.70. UACC 211200Z 36004MPS 320V020 9999 SCT040 08/00 Q1023 R04/0///70 NOSIG RMK QFE736/0981
VFR 8°C / 1°C 350º 6kt >10km - Few Clouds 3600ft 1023 No Significant change. Runway 04: Clear and dry, , friction coefficient 0.70. UACC 211130Z 35003MPS 9999 FEW036CB 08/01 Q1023 R04/0///70 NOSIG RMK QFE736/0981
VFR 9°C / 0°C 10º 6kt >10km - Few Clouds 3600ft 1023 No Significant change. Runway 04: Clear and dry, , friction coefficient 0.70. UACC 211100Z 01003MPS 9999 FEW036CB 09/M00 Q1023 R04/0///70 NOSIG RMK QFE736/0981
VFR 8°C / 1°C 20º variable 350º to 050º 10kt >10km - Few Clouds 3100ft 1023 No Significant change. Runway 04: Clear and dry, , friction coefficient 0.70. UACC 211030Z 02005MPS 350V050 9999 FEW031CB 08/01 Q1023 R04/0///70 NOSIG RMK QFE736/0981
VFR 8°C / 1°C 340º variable 290º to 020º 6kt >10km - Few Clouds 3100ft 1023 No Significant change. Runway 04: Clear and dry, , friction coefficient 0.70. UACC 211000Z 34003MPS 290V020 9999 FEW031CB 08/01 Q1023 R04/0///70 NOSIG RMK QFE735/0981
VFR 8°C / 0°C 310º variable 260º to 360º 8kt >10km - Few Clouds 3100ft 1023 No Significant change. Runway 04: Clear and dry, , friction coefficient 0.70. UACC 210930Z 31004MPS 260V360 9999 FEW031CB 08/00 Q1023 R04/0///70 NOSIG RMK QFE735/0981
VFR 9°C / 1°C 330º variable 290º to 360º 8kt >10km - Few Clouds 3100ft 1023 No Significant change. Runway 04: Clear and dry, , friction coefficient 0.70. UACC 210900Z 33004MPS 290V360 9999 FEW031CB 09/01 Q1023 R04/0///70 NOSIG RMK QFE735/0981
VFR 8°C / 1°C 350º variable 320º to 020º 10kt >10km - Scattered Clouds 3100ft 1023 No Significant change. Runway 04: Clear and dry, , friction coefficient 0.70. UACC 210830Z 35005MPS 320V020 9999 SCT031CB BKN046 08/01 Q1023 R04/0///70 NOSIG RMK QFE735/0981
VFR 8°C / 0°C 350º variable 290º to 020º 6kt >10km - Scattered Clouds 3100ft 1023 No Significant change. Runway 04: Clear and dry, , friction coefficient 0.70. UACC 210800Z 35003MPS 290V020 9999 SCT031CB BKN046 08/M00 Q1023 R04/0///70 NOSIG RMK QFE735/0981
VFR 7°C / 0°C 340º variable 310º to 030º 6kt >10km - Scattered Clouds 2600ft 1023 No Significant change. Runway 22: Clear and dry, , friction coefficient 0.70. UACC 210730Z 34003MPS 310V030 9999 SCT026CB BKN043 07/M00 Q1023 R22/0///70 NOSIG RMK QFE736/0981
VFR 7°C / 0°C 350º variable 310º to 030º 6kt >10km - Scattered Clouds 2500ft 1023 No Significant change. Runway 22: Clear and dry, , friction coefficient 0.70. UACC 210700Z 35003MPS 310V030 9999 SCT025CB BKN036 07/M00 Q1023 R22/0///70 NOSIG RMK QFE736/0981
VFR 7°C / 0°C 320º variable 280º to 360º 6kt >10km - Scattered Clouds 2500ft 1023 No Significant change. Runway 22: Clear and dry, , friction coefficient 0.70. UACC 210630Z 32003MPS 280V360 9999 SCT025CB BKN036 07/M00 Q1023 R22/0///70 NOSIG RMK QFE736/0981

VFR

3°C / -1°C

[Meer]
Wind 280º 4kt
Zicht >10km
Weer -
Wolken Clouds and Visibility OK
Luchtdruk 1023
Wijzigen No Significant change. Runway 04: Clear and dry, , friction coefficient 0.70.
Ruw UACC 211800Z 28002MPS CAVOK 03/M01 Q1023 R04/0///70 NOSIG RMK QFE735/0981

VFR

3°C / -1°C

[Meer]
Wind 310º 4kt
Zicht >10km
Weer -
Wolken Clouds and Visibility OK
Luchtdruk 1023
Wijzigen No Significant change. Runway 04: Clear and dry, , friction coefficient 0.70.
Ruw UACC 211730Z 31002MPS CAVOK 03/M01 Q1023 R04/0///70 NOSIG RMK QFE735/0981

VFR

4°C / -2°C

[Meer]
Wind 300º 6kt
Zicht >10km
Weer -
Wolken Few Clouds 4600ft
Luchtdruk 1023
Wijzigen No Significant change. Runway 04: Clear and dry, , friction coefficient 0.70.
Ruw UACC 211700Z 30003MPS 9999 FEW046 04/M02 Q1023 R04/0///70 NOSIG RMK QFE735/0981

VFR

4°C / -1°C

[Meer]
Wind 300º 4kt
Zicht >10km
Weer -
Wolken Scattered Clouds 4300ft
Luchtdruk 1023
Wijzigen No Significant change. Runway 04: Clear and dry, , friction coefficient 0.70.
Ruw UACC 211630Z 30002MPS 9999 SCT043 04/M01 Q1023 R04/0///70 NOSIG RMK QFE735/0981

VFR

4°C / 0°C

[Meer]
Wind 290º 4kt
Zicht >10km
Weer -
Wolken Scattered Clouds 4200ft
Luchtdruk 1023
Wijzigen No Significant change. Runway 04: Clear and dry, , friction coefficient 0.70.
Ruw UACC 211600Z 29002MPS 9999 SCT042 04/M00 Q1023 R04/0///70 NOSIG RMK QFE736/0981

VFR

5°C / 0°C

[Meer]
Wind 280º 4kt
Zicht >10km
Weer -
Wolken Broken Clouds 4000ft
Luchtdruk 1023
Wijzigen No Significant change. Runway 04: Clear and dry, , friction coefficient 0.70.
Ruw UACC 211530Z 28002MPS 9999 BKN040 05/00 Q1023 R04/0///70 NOSIG RMK QFE736/0981

VFR

6°C / 0°C

[Meer]
Wind 260º 6kt
Zicht >10km
Weer -
Wolken Broken Clouds 4300ft
Luchtdruk 1023
Wijzigen No Significant change. Runway 04: Clear and dry, , friction coefficient 0.70.
Ruw UACC 211500Z 26003MPS 9999 BKN043 06/00 Q1023 R04/0///70 NOSIG RMK QFE736/0981

VFR

5°C / -1°C

[Meer]
Wind 260º 4kt
Zicht >10km
Weer -
Wolken Scattered Clouds 4600ft
Luchtdruk 1023
Wijzigen No Significant change. Runway 04: Clear and dry, , friction coefficient 0.70.
Ruw UACC 211430Z 26002MPS 9999 SCT046 05/M01 Q1023 R04/0///70 NOSIG RMK QFE736/0981

VFR

6°C / 0°C

[Meer]
Wind variable 2kt
Zicht >10km
Weer -
Wolken Clouds and Visibility OK
Luchtdruk 1023
Wijzigen No Significant change. Runway 04: Clear and dry, , friction coefficient 0.70.
Ruw UACC 211400Z VRB01MPS CAVOK 06/00 Q1023 R04/0///70 NOSIG RMK QFE736/0981

VFR

7°C / 0°C

[Meer]
Wind 20º 4kt
Zicht >10km
Weer -
Wolken Clouds and Visibility OK
Luchtdruk 1023
Wijzigen No Significant change. Runway 04: Clear and dry, , friction coefficient 0.70.
Ruw UACC 211330Z 02002MPS CAVOK 07/00 Q1023 R04/0///70 NOSIG RMK QFE735/0981

VFR

7°C / 0°C

[Meer]
Wind 10º 4kt
Zicht >10km
Weer -
Wolken Scattered Clouds 4300ft
Luchtdruk 1023
Wijzigen No Significant change. Runway 04: Clear and dry, , friction coefficient 0.70.
Ruw UACC 211300Z 01002MPS 9999 SCT043 07/00 Q1023 R04/0///70 NOSIG RMK QFE735/0981

VFR

8°C / 0°C

[Meer]
Wind 350º variable 300º to 010º 4kt
Zicht >10km
Weer -
Wolken Scattered Clouds 4000ft
Luchtdruk 1023
Wijzigen No Significant change. Runway 04: Clear and dry, , friction coefficient 0.70.
Ruw UACC 211230Z 35002MPS 300V010 9999 SCT040 08/00 Q1023 R04/0///70 NOSIG RMK QFE736/0981

VFR

8°C / 0°C

[Meer]
Wind 360º variable 320º to 020º 8kt
Zicht >10km
Weer -
Wolken Scattered Clouds 4000ft
Luchtdruk 1023
Wijzigen No Significant change. Runway 04: Clear and dry, , friction coefficient 0.70.
Ruw UACC 211200Z 36004MPS 320V020 9999 SCT040 08/00 Q1023 R04/0///70 NOSIG RMK QFE736/0981

VFR

8°C / 1°C

[Meer]
Wind 350º 6kt
Zicht >10km
Weer -
Wolken Few Clouds 3600ft
Luchtdruk 1023
Wijzigen No Significant change. Runway 04: Clear and dry, , friction coefficient 0.70.
Ruw UACC 211130Z 35003MPS 9999 FEW036CB 08/01 Q1023 R04/0///70 NOSIG RMK QFE736/0981

VFR

9°C / 0°C

[Meer]
Wind 10º 6kt
Zicht >10km
Weer -
Wolken Few Clouds 3600ft
Luchtdruk 1023
Wijzigen No Significant change. Runway 04: Clear and dry, , friction coefficient 0.70.
Ruw UACC 211100Z 01003MPS 9999 FEW036CB 09/M00 Q1023 R04/0///70 NOSIG RMK QFE736/0981

VFR

8°C / 1°C

[Meer]
Wind 20º variable 350º to 050º 10kt
Zicht >10km
Weer -
Wolken Few Clouds 3100ft
Luchtdruk 1023
Wijzigen No Significant change. Runway 04: Clear and dry, , friction coefficient 0.70.
Ruw UACC 211030Z 02005MPS 350V050 9999 FEW031CB 08/01 Q1023 R04/0///70 NOSIG RMK QFE736/0981

VFR

8°C / 1°C

[Meer]
Wind 340º variable 290º to 020º 6kt
Zicht >10km
Weer -
Wolken Few Clouds 3100ft
Luchtdruk 1023
Wijzigen No Significant change. Runway 04: Clear and dry, , friction coefficient 0.70.
Ruw UACC 211000Z 34003MPS 290V020 9999 FEW031CB 08/01 Q1023 R04/0///70 NOSIG RMK QFE735/0981

VFR

8°C / 0°C

[Meer]
Wind 310º variable 260º to 360º 8kt
Zicht >10km
Weer -
Wolken Few Clouds 3100ft
Luchtdruk 1023
Wijzigen No Significant change. Runway 04: Clear and dry, , friction coefficient 0.70.
Ruw UACC 210930Z 31004MPS 260V360 9999 FEW031CB 08/00 Q1023 R04/0///70 NOSIG RMK QFE735/0981

VFR

9°C / 1°C

[Meer]
Wind 330º variable 290º to 360º 8kt
Zicht >10km
Weer -
Wolken Few Clouds 3100ft
Luchtdruk 1023
Wijzigen No Significant change. Runway 04: Clear and dry, , friction coefficient 0.70.
Ruw UACC 210900Z 33004MPS 290V360 9999 FEW031CB 09/01 Q1023 R04/0///70 NOSIG RMK QFE735/0981

VFR

8°C / 1°C

[Meer]
Wind 350º variable 320º to 020º 10kt
Zicht >10km
Weer -
Wolken Scattered Clouds 3100ft
Luchtdruk 1023
Wijzigen No Significant change. Runway 04: Clear and dry, , friction coefficient 0.70.
Ruw UACC 210830Z 35005MPS 320V020 9999 SCT031CB BKN046 08/01 Q1023 R04/0///70 NOSIG RMK QFE735/0981

VFR

8°C / 0°C

[Meer]
Wind 350º variable 290º to 020º 6kt
Zicht >10km
Weer -
Wolken Scattered Clouds 3100ft
Luchtdruk 1023
Wijzigen No Significant change. Runway 04: Clear and dry, , friction coefficient 0.70.
Ruw UACC 210800Z 35003MPS 290V020 9999 SCT031CB BKN046 08/M00 Q1023 R04/0///70 NOSIG RMK QFE735/0981

VFR

7°C / 0°C

[Meer]
Wind 340º variable 310º to 030º 6kt
Zicht >10km
Weer -
Wolken Scattered Clouds 2600ft
Luchtdruk 1023
Wijzigen No Significant change. Runway 22: Clear and dry, , friction coefficient 0.70.
Ruw UACC 210730Z 34003MPS 310V030 9999 SCT026CB BKN043 07/M00 Q1023 R22/0///70 NOSIG RMK QFE736/0981

VFR

7°C / 0°C

[Meer]
Wind 350º variable 310º to 030º 6kt
Zicht >10km
Weer -
Wolken Scattered Clouds 2500ft
Luchtdruk 1023
Wijzigen No Significant change. Runway 22: Clear and dry, , friction coefficient 0.70.
Ruw UACC 210700Z 35003MPS 310V030 9999 SCT025CB BKN036 07/M00 Q1023 R22/0///70 NOSIG RMK QFE736/0981

VFR

7°C / 0°C

[Meer]
Wind 320º variable 280º to 360º 6kt
Zicht >10km
Weer -
Wolken Scattered Clouds 2500ft
Luchtdruk 1023
Wijzigen No Significant change. Runway 22: Clear and dry, , friction coefficient 0.70.
Ruw UACC 210630Z 32003MPS 280V360 9999 SCT025CB BKN036 07/M00 Q1023 R22/0///70 NOSIG RMK QFE736/0981

TAF voor 51.02°N 71.47°O (UACC)

From till


Maximum Temperature 9ºC on . Minimum Temperature -3ºC on .
From till Wind variable 4kt. Visibility 3100m. Mist . Broken Clouds 500ft. Broken Clouds 5000ft.
Temporarly from till Wind 290º 8kt. Visibility 305.775m. Fog . Obscured Sky.
Temporarly from till Visibility 193.121m. freezing Fog . Obscured Sky.
From till Wind 290º 10kt. Visibility 10km or more. Scattered Clouds 1100ft. Broken Clouds 5000ft.

Ruw: TAF UACC 211704Z 2118/2218 VRB02MPS 3100 BR BKN005 BKN050 TX09/2209Z TNM03/2201Z TEMPO 2119/2120 29004MPS 0300 FG VV002 TEMPO 2120/2204 0200 FZFG VV001 FM220500 29005MPS 9999 SCT011 BKN050

Huidige satelliet- en regenbeelden voor 51.02°N 71.47°O

De locatiemarkering is geplaatst op 51.02°N 71.47°O. [Meer]

Het realtime satellietbeeld combineert zichtbaar licht overdag met infraroodstraling 's nachts. 's Nachts is het beeld niet donker, omdat infraroodstraling temperatuurverschillen kan waarnemen. Helaas zijn lage wolken en mist moeilijk te onderscheiden van grondtemperaturen en kunnen dus 's nachts bijna onzichtbaar zijn. Meteosat-satellietbeelden voor Europa worden elke 5 minuten in real time bijgewerkt. De beelden van GOES-16/GOES-17 (Noord- en Zuid-Amerika) en Himawari (Azië) worden om de 10 minuten bijgewerkt.

Copyright 2021 EUMETSAT / meteoblue. / Copyright 2021 meteoblue

Radar en neerslag nowcast voor 51.02°N 71.47°O

Motregen
Licht
Matig
Zwaar
Zeer zwaar
Hail

De locatiemarkering wordt geplaatst op 51.02°N 71.47°O. Deze animation toont de neerslag radar van het afgelopen uur, maar ook de 1h verwachting. Motregen of lichte sneeuwval kan onzichtbaar zijn voor de radar. De neerslagintensiteit wordt met kleuren gecodeerd, van lichtblauw tot oranje.